createdAt,value
2019-04-07T00:01:53.270Z,5.67
2019-04-07T00:04:22.575Z,5.43
2019-04-07T00:06:52.154Z,5.77
2019-04-07T00:09:21.355Z,5.40
2019-04-07T00:11:50.765Z,5.70
2019-04-07T00:14:20.684Z,5.40
2019-04-07T00:16:50.430Z,6.10
2019-04-07T00:19:19.946Z,5.20
2019-04-07T00:21:49.116Z,5.33
2019-04-07T00:24:18.305Z,5.23
2019-04-07T00:26:47.563Z,5.17
2019-04-07T00:29:17.414Z,4.77
2019-04-07T00:31:46.814Z,5.40
2019-04-07T00:34:15.945Z,5.13
2019-04-07T00:36:45.144Z,5.07
2019-04-07T00:39:14.823Z,5.17
2019-04-07T00:41:44.322Z,4.93
2019-04-07T00:44:13.517Z,4.80
2019-04-07T00:46:43.190Z,4.67
2019-04-07T00:49:13.149Z,5.03
2019-04-07T00:51:42.413Z,4.80
2019-04-07T00:54:11.628Z,4.60
2019-04-07T00:56:41.195Z,5.37
2019-04-07T00:59:10.683Z,4.83
2019-04-07T01:01:39.944Z,4.63
2019-04-07T01:04:09.082Z,4.90
2019-04-07T01:06:38.345Z,4.83
2019-04-07T01:09:10.225Z,4.73
2019-04-07T01:11:39.622Z,4.30
2019-04-07T01:14:09.339Z,4.60
2019-04-07T01:16:39.042Z,4.73
2019-04-07T01:19:08.839Z,4.57
2019-04-07T01:21:38.354Z,5.30
2019-04-07T01:24:07.526Z,4.93
2019-04-07T01:26:37.178Z,4.53
2019-04-07T01:29:06.566Z,4.30
2019-04-07T01:31:36.217Z,5.13
2019-04-07T01:34:05.584Z,4.70
2019-04-07T01:36:34.847Z,4.90
2019-04-07T01:39:05.194Z,4.70
2019-04-07T01:41:42.943Z,4.80
2019-04-07T01:44:21.066Z,4.97
2019-04-07T01:47:09.217Z,4.60
2019-04-07T01:49:50.394Z,4.93
2019-04-07T01:52:29.060Z,4.40
2019-04-07T01:55:20.373Z,4.63
2019-04-07T01:58:12.010Z,5.00
2019-04-07T02:00:58.919Z,5.07
2019-04-07T02:03:56.233Z,4.80
2019-04-07T02:06:37.879Z,4.43
2019-04-07T02:09:20.077Z,4.80
2019-04-07T02:12:05.266Z,4.50
2019-04-07T02:14:56.327Z,4.33
2019-04-07T02:17:50.650Z,4.10
2019-04-07T02:20:51.617Z,4.10
2019-04-07T02:23:45.901Z,4.57
2019-04-07T02:26:34.362Z,4.13
2019-04-07T02:29:25.795Z,3.97
2019-04-07T02:32:04.468Z,4.43
2019-04-07T02:34:44.059Z,4.40
2019-04-07T02:37:36.332Z,4.47
2019-04-07T02:40:17.851Z,4.67
2019-04-07T02:42:52.171Z,4.10
2019-04-07T02:45:41.178Z,3.93
2019-04-07T02:48:33.742Z,4.33
2019-04-07T02:51:20.782Z,4.10
2019-04-07T02:54:20.991Z,4.57
2019-04-07T02:56:56.055Z,4.50
2019-04-07T02:59:47.908Z,4.20
2019-04-07T03:02:35.256Z,4.13
2019-04-07T03:05:14.551Z,4.10
2019-04-07T03:08:09.162Z,4.20
2019-04-07T03:10:53.908Z,4.70
2019-04-07T03:13:42.027Z,4.77
2019-04-07T03:16:29.301Z,4.33
2019-04-07T03:19:04.719Z,4.40
2019-04-07T03:21:45.776Z,4.37
2019-04-07T03:24:34.826Z,4.10
2019-04-07T03:27:42.260Z,4.17
2019-04-07T03:30:32.759Z,4.30
2019-04-07T03:33:26.211Z,4.30
2019-04-07T03:36:19.852Z,4.33
2019-04-07T03:39:20.444Z,3.97
2019-04-07T03:41:57.616Z,4.60
2019-04-07T03:44:48.930Z,4.10
2019-04-07T03:47:50.424Z,4.23
2019-04-07T03:50:29.458Z,4.40
2019-04-07T03:53:21.091Z,3.97
2019-04-07T03:56:10.161Z,4.23
2019-04-07T03:58:49.406Z,4.13
2019-04-07T04:01:36.838Z,4.20
2019-04-07T04:04:34.374Z,4.20
2019-04-07T04:07:31.318Z,4.20
2019-04-07T04:09:58.166Z,4.30
2019-04-07T04:12:35.571Z,4.37
2019-04-07T04:15:10.563Z,3.83
2019-04-07T04:17:40.001Z,4.13
2019-04-07T04:20:09.225Z,3.70
2019-04-07T04:22:39.571Z,4.20
2019-04-07T04:25:09.097Z,4.17
2019-04-07T04:27:38.780Z,4.33
2019-04-07T04:30:10.249Z,3.70
2019-04-07T04:32:39.808Z,3.80
2019-04-07T04:35:08.999Z,4.33
2019-04-07T04:37:46.048Z,4.13
2019-04-07T04:40:09.364Z,4.53
2019-04-07T04:42:38.855Z,4.27
2019-04-07T04:45:08.351Z,3.57
2019-04-07T04:47:39.143Z,3.80
2019-04-07T04:50:09.677Z,4.00
2019-04-07T04:52:40.579Z,4.20
2019-04-07T04:55:11.210Z,3.80
2019-04-07T04:57:40.826Z,4.23
2019-04-07T05:00:10.822Z,4.20
2019-04-07T05:02:40.050Z,4.23
2019-04-07T05:05:09.967Z,4.00
2019-04-07T05:07:51.064Z,4.27
2019-04-07T05:10:10.874Z,3.80
2019-04-07T05:12:40.276Z,3.90
2019-04-07T05:15:09.742Z,3.80
2019-04-07T05:17:39.155Z,4.13
2019-04-07T05:20:08.278Z,3.97
2019-04-07T05:22:38.020Z,3.80
2019-04-07T05:25:07.440Z,3.80
2019-04-07T05:27:36.633Z,3.60
2019-04-07T05:30:06.715Z,4.00
2019-04-07T05:32:35.859Z,3.77
2019-04-07T05:35:05.906Z,3.97
2019-04-07T05:37:35.388Z,4.13
2019-04-07T05:40:04.827Z,3.97
2019-04-07T05:42:34.302Z,3.93
2019-04-07T05:45:04.064Z,4.00
2019-04-07T05:47:33.940Z,3.80
2019-04-07T05:50:05.128Z,4.03
2019-04-07T05:52:39.270Z,3.90
2019-04-07T05:55:05.202Z,4.27
2019-04-07T05:57:35.883Z,4.83
2019-04-07T06:00:07.134Z,3.70
2019-04-07T06:02:36.404Z,4.10
2019-04-07T06:05:06.601Z,4.07
2019-04-07T06:07:36.907Z,4.07
2019-04-07T06:10:07.876Z,4.00
2019-04-07T06:12:40.894Z,3.97
2019-04-07T06:15:08.791Z,3.70
2019-04-07T06:17:39.111Z,4.23
2019-04-07T06:20:12.057Z,3.70
2019-04-07T06:22:40.369Z,3.70
2019-04-07T06:25:11.015Z,3.63
2019-04-07T06:27:40.539Z,4.00
2019-04-07T06:30:10.967Z,3.70
2019-04-07T06:32:43.569Z,4.17
2019-04-07T06:35:13.307Z,3.20
2019-04-07T06:37:42.998Z,3.67
2019-04-07T06:40:13.154Z,3.70
2019-04-07T06:42:44.877Z,3.67
2019-04-07T06:45:20.705Z,3.50
2019-04-07T06:47:51.861Z,3.60
2019-04-07T06:50:47.589Z,3.50
2019-04-07T06:53:35.281Z,3.83
2019-04-07T06:56:19.700Z,3.87
2019-04-07T06:59:05.690Z,3.80
2019-04-07T07:01:53.660Z,3.70
2019-04-07T07:04:41.567Z,3.93
2019-04-07T07:07:36.870Z,3.70
2019-04-07T07:10:37.840Z,3.83
2019-04-07T07:13:29.218Z,3.87
2019-04-07T07:16:17.139Z,3.43
2019-04-07T07:19:15.145Z,4.20
2019-04-07T07:22:02.252Z,3.33
2019-04-07T07:24:31.674Z,3.87
2019-04-07T07:27:02.673Z,4.13
2019-04-07T07:29:32.109Z,3.60
2019-04-07T07:32:03.803Z,4.13
2019-04-07T07:34:32.406Z,3.90
2019-04-07T07:37:01.562Z,4.17
2019-04-07T07:39:31.548Z,3.87
2019-04-07T07:42:01.842Z,6.00
2019-04-07T07:44:34.002Z,5.40
2019-04-07T07:47:02.607Z,5.00
2019-04-07T07:49:35.173Z,5.60
2019-04-07T07:52:03.237Z,5.30
2019-04-07T07:54:33.458Z,6.13
2019-04-07T07:57:02.698Z,6.10
2019-04-07T07:59:37.782Z,5.87
2019-04-07T08:02:03.378Z,4.50
2019-04-07T08:04:33.463Z,5.33
2019-04-07T08:07:02.964Z,5.20
2019-04-07T08:09:32.906Z,4.80
2019-04-07T08:12:06.235Z,6.67
2019-04-07T08:14:36.061Z,6.20
2019-04-07T08:17:05.483Z,6.40
2019-04-07T08:19:34.606Z,6.30
2019-04-07T08:22:03.819Z,6.40
2019-04-07T08:24:33.044Z,6.33
2019-04-07T08:27:02.294Z,6.57
2019-04-07T08:29:32.314Z,6.10
2019-04-07T08:32:06.583Z,5.80
2019-04-07T08:34:36.220Z,5.63
2019-04-07T08:37:08.407Z,5.77
2019-04-07T08:39:38.638Z,6.13
2019-04-07T08:42:11.822Z,6.70
2019-04-07T08:44:39.131Z,7.17
2019-04-07T08:47:11.439Z,7.07
2019-04-07T08:49:39.233Z,7.67
2019-04-07T08:52:12.108Z,6.60
2019-04-07T08:54:43.273Z,6.60
2019-04-07T08:57:12.503Z,7.40
2019-04-07T08:59:42.988Z,8.00
2019-04-07T09:02:13.659Z,8.17
2019-04-07T09:04:47.283Z,7.33
2019-04-07T09:07:14.077Z,6.60
2019-04-07T09:09:47.405Z,6.23
2019-04-07T09:12:15.272Z,6.67
2019-04-07T09:15:13.913Z,5.90
2019-04-07T09:17:51.420Z,5.67
2019-04-07T09:20:41.891Z,5.30
2019-04-07T09:23:38.131Z,5.00
2019-04-07T09:26:12.806Z,5.43
2019-04-07T09:29:05.136Z,4.53
2019-04-07T09:31:58.646Z,4.70
2019-04-07T09:34:55.314Z,4.90
2019-04-07T09:38:07.699Z,4.70
2019-04-07T09:40:54.549Z,4.30
2019-04-07T09:43:34.883Z,4.27
2019-04-07T09:46:13.579Z,4.33
2019-04-07T09:49:07.899Z,4.70
2019-04-07T09:51:56.243Z,4.33
2019-04-07T09:54:51.815Z,5.13
2019-04-07T09:57:38.997Z,5.00
2019-04-07T10:00:32.038Z,5.10
2019-04-07T10:03:13.704Z,4.27
2019-04-07T10:05:58.998Z,4.70
2019-04-07T10:08:37.402Z,5.17
2019-04-07T10:11:38.453Z,4.90
2019-04-07T10:14:25.951Z,4.83
2019-04-07T10:17:14.669Z,4.57
2019-04-07T10:20:01.133Z,4.43
2019-04-07T10:22:39.618Z,4.80
2019-04-07T10:25:29.003Z,4.70
2019-04-07T10:28:16.630Z,4.73
2019-04-07T10:31:20.884Z,4.47
2019-04-07T10:34:18.317Z,4.73
2019-04-07T10:37:12.466Z,5.17
2019-04-07T10:40:19.534Z,4.97
2019-04-07T10:42:55.543Z,4.87
2019-04-07T10:45:36.498Z,4.60
2019-04-07T10:48:43.463Z,4.43
2019-04-07T10:51:37.494Z,5.10
2019-04-07T10:54:28.691Z,4.80
2019-04-07T10:57:14.703Z,4.40
2019-04-07T10:59:57.951Z,4.67
2019-04-07T11:02:52.771Z,4.27
2019-04-07T11:05:38.334Z,4.30
2019-04-07T11:08:23.298Z,4.37
2019-04-07T11:11:12.216Z,4.50
2019-04-07T11:14:09.734Z,4.30
2019-04-07T11:17:10.118Z,4.60
2019-04-07T11:19:56.864Z,4.70
2019-04-07T11:23:00.922Z,4.50
2019-04-07T11:25:47.873Z,4.60
2019-04-07T11:28:29.128Z,4.17
2019-04-07T11:31:04.039Z,4.10
2019-04-07T11:33:52.517Z,4.27
2019-04-07T11:36:36.455Z,4.07
2019-04-07T11:39:23.096Z,4.33
2019-04-07T11:42:09.734Z,3.80
2019-04-07T11:45:00.674Z,4.30
2019-04-07T11:47:40.555Z,4.43
2019-04-07T11:50:29.938Z,4.00
2019-04-07T11:53:05.789Z,4.10
2019-04-07T11:56:01.460Z,4.17
2019-04-07T11:59:09.156Z,4.77
2019-04-07T12:01:51.014Z,4.60
2019-04-07T12:04:43.678Z,4.50
2019-04-07T12:07:21.920Z,4.87
2019-04-07T12:10:04.126Z,4.40
2019-04-07T12:12:55.995Z,4.57
2019-04-07T12:15:59.436Z,4.20
2019-04-07T12:18:56.563Z,4.50
2019-04-07T12:21:39.483Z,4.37
2019-04-07T12:24:28.659Z,4.10
2019-04-07T12:27:22.470Z,4.63
2019-04-07T12:30:14.379Z,4.17
2019-04-07T12:32:56.092Z,4.53
2019-04-07T12:35:53.419Z,4.90
2019-04-07T12:38:45.025Z,4.97
2019-04-07T12:41:22.099Z,4.70
2019-04-07T12:43:56.697Z,4.87
2019-04-07T12:46:54.081Z,4.47
2019-04-07T12:49:44.469Z,4.67
2019-04-07T12:52:42.149Z,4.87
2019-04-07T12:55:40.464Z,4.50
2019-04-07T12:58:35.671Z,4.20
2019-04-07T13:01:29.685Z,4.60
2019-04-07T13:04:07.671Z,4.33
2019-04-07T13:07:05.057Z,4.97
2019-04-07T13:10:08.548Z,5.10
2019-04-07T13:12:57.950Z,5.80
2019-04-07T13:16:01.466Z,5.07
2019-04-07T13:18:48.422Z,4.90
2019-04-07T13:21:32.279Z,5.30
2019-04-07T13:24:34.932Z,5.40
2019-04-07T13:27:09.264Z,5.27
2019-04-07T13:29:43.338Z,5.03
2019-04-07T13:32:39.353Z,5.03
2019-04-07T13:35:29.857Z,5.80
2019-04-07T13:38:17.499Z,5.57
2019-04-07T13:41:01.841Z,5.57
2019-04-07T13:43:38.862Z,5.60
2019-04-07T13:46:35.402Z,5.63
2019-04-07T13:49:19.414Z,7.50
2019-04-07T13:52:23.129Z,8.40
2019-04-07T13:55:05.881Z,7.03
2019-04-07T13:57:48.268Z,6.93
2019-04-07T14:00:25.220Z,6.77
2019-04-07T14:03:30.040Z,6.17
2019-04-07T14:06:05.159Z,6.00
2019-04-07T14:08:57.539Z,6.17
2019-04-07T14:11:57.228Z,5.40
2019-04-07T14:14:47.215Z,6.10
2019-04-07T14:17:50.803Z,5.53
2019-04-07T14:20:55.070Z,5.67
2019-04-07T14:23:52.104Z,5.60
2019-04-07T14:26:42.383Z,5.70
2019-04-07T14:29:30.637Z,5.80
2019-04-07T14:32:16.334Z,5.90
2019-04-07T14:35:02.974Z,6.63
2019-04-07T14:37:44.339Z,5.70
2019-04-07T14:40:38.912Z,5.97
2019-04-07T14:43:38.893Z,5.60
2019-04-07T14:46:27.350Z,5.70
2019-04-07T14:49:07.709Z,5.60
2019-04-07T14:51:53.812Z,5.17
2019-04-07T14:54:36.639Z,5.63
2019-04-07T14:57:34.051Z,5.53
2019-04-07T15:00:10.916Z,5.87
2019-04-07T15:02:40.173Z,5.97
2019-04-07T15:05:28.792Z,5.87
2019-04-07T15:08:03.325Z,5.50
2019-04-07T15:10:39.765Z,5.60
2019-04-07T15:13:12.476Z,5.80
2019-04-07T15:15:41.780Z,5.90
2019-04-07T15:18:11.644Z,6.20
2019-04-07T15:20:43.123Z,5.87
2019-04-07T15:23:12.220Z,5.20
2019-04-07T15:25:44.146Z,5.77
2019-04-07T15:28:15.466Z,5.60
2019-04-07T15:30:47.795Z,5.40
2019-04-07T15:33:15.873Z,5.57
2019-04-07T15:35:47.857Z,5.40
2019-04-07T15:38:16.470Z,5.80
2019-04-07T15:40:45.971Z,5.67
2019-04-07T15:43:15.839Z,5.43
2019-04-07T15:45:45.618Z,5.47
2019-04-07T15:48:14.902Z,5.80
2019-04-07T15:50:44.109Z,5.57
2019-04-07T15:53:15.186Z,5.40
2019-04-07T15:55:50.966Z,5.57
2019-04-07T15:58:17.034Z,5.83
2019-04-07T16:00:46.317Z,5.23
2019-04-07T16:03:16.878Z,5.63
2019-04-07T16:05:46.636Z,5.13
2019-04-07T16:08:16.228Z,5.43
2019-04-07T16:10:45.441Z,5.60
2019-04-07T16:13:15.432Z,5.40
2019-04-07T16:15:46.304Z,5.33
2019-04-07T16:18:15.957Z,5.53
2019-04-07T16:20:45.449Z,4.93
2019-04-07T16:23:18.364Z,5.10
2019-04-07T16:25:46.430Z,5.60
2019-04-07T16:28:16.224Z,5.23
2019-04-07T16:30:50.173Z,6.17
2019-04-07T16:33:17.387Z,5.13
2019-04-07T16:35:53.477Z,5.63
2019-04-07T16:38:20.616Z,6.20
2019-04-07T16:40:50.213Z,6.43
2019-04-07T16:43:20.487Z,5.37
2019-04-07T16:45:52.760Z,6.87
2019-04-07T16:48:22.901Z,6.57
2019-04-07T16:51:02.024Z,7.17
2019-04-07T16:53:30.910Z,7.03
2019-04-07T16:56:00.945Z,8.63
2019-04-07T16:58:33.164Z,6.50
2019-04-07T17:01:01.357Z,6.90
2019-04-07T17:03:31.043Z,7.20
2019-04-07T17:06:01.665Z,6.97
2019-04-07T17:08:31.793Z,7.17
2019-04-07T17:11:04.466Z,7.00
2019-04-07T17:13:38.659Z,8.13
2019-04-07T17:16:02.934Z,8.10
2019-04-07T17:18:39.122Z,7.90
2019-04-07T17:21:12.760Z,7.97
2019-04-07T17:23:42.839Z,8.30
2019-04-07T17:26:12.195Z,7.20
2019-04-07T17:28:44.659Z,7.60
2019-04-07T17:31:13.034Z,8.87
2019-04-07T17:33:42.732Z,9.33
2019-04-07T17:36:15.372Z,10.67
2019-04-07T17:38:56.308Z,9.40
2019-04-07T17:41:25.849Z,9.10
2019-04-07T17:44:17.622Z,9.23
2019-04-07T17:47:02.861Z,9.43
2019-04-07T17:50:05.162Z,8.20
2019-04-07T17:53:03.068Z,9.00
2019-04-07T17:55:59.792Z,10.23
2019-04-07T17:58:39.683Z,9.83
2019-04-07T18:01:23.845Z,8.57
2019-04-07T18:04:06.002Z,10.10
2019-04-07T18:06:54.911Z,8.83
2019-04-07T18:09:51.326Z,10.17
2019-04-07T18:12:31.815Z,11.10
2019-04-07T18:15:20.290Z,10.60
2019-04-07T18:17:59.245Z,11.30
2019-04-07T18:20:40.474Z,10.37
2019-04-07T18:23:34.818Z,10.93
2019-04-07T18:26:15.585Z,10.63
2019-04-07T18:28:52.768Z,10.80
2019-04-07T18:31:41.994Z,11.03
2019-04-07T18:34:28.577Z,12.07
2019-04-07T18:37:10.062Z,12.33
2019-04-07T18:40:04.699Z,14.03
2019-04-07T18:42:55.737Z,15.10
2019-04-07T18:45:36.359Z,15.60
2019-04-07T18:48:28.414Z,15.50
2019-04-07T18:51:25.507Z,16.30
2019-04-07T18:54:12.967Z,16.10
2019-04-07T18:57:01.320Z,14.43
2019-04-07T18:59:55.412Z,15.17
2019-04-07T19:02:38.306Z,13.87
2019-04-07T19:05:14.995Z,13.83
2019-04-07T19:08:02.700Z,14.00
2019-04-07T19:10:45.429Z,12.83
2019-04-07T19:13:31.267Z,14.10
2019-04-07T19:16:28.731Z,13.00
2019-04-07T19:19:18.012Z,13.20
2019-04-07T19:22:06.706Z,12.10
2019-04-07T19:24:55.825Z,12.60
2019-04-07T19:27:48.246Z,12.70
2019-04-07T19:30:39.422Z,11.63
2019-04-07T19:33:30.642Z,11.73
2019-04-07T19:36:19.839Z,11.53
2019-04-07T19:39:12.481Z,11.50
2019-04-07T19:41:55.178Z,11.23
2019-04-07T19:44:50.152Z,11.47
2019-04-07T19:47:34.879Z,11.37
2019-04-07T19:50:23.501Z,11.10
2019-04-07T19:53:26.417Z,11.93
2019-04-07T19:56:02.478Z,9.57
2019-04-07T19:58:54.162Z,10.97
2019-04-07T20:01:42.628Z,10.47
2019-04-07T20:04:25.612Z,10.63
2019-04-07T20:07:02.265Z,10.50
2019-04-07T20:09:50.558Z,10.40
2019-04-07T20:12:33.403Z,10.30
2019-04-07T20:15:25.299Z,9.77
2019-04-07T20:18:07.117Z,10.50
2019-04-07T20:20:48.524Z,10.50
2019-04-07T20:23:43.535Z,10.13
2019-04-07T20:26:39.157Z,10.10
2019-04-07T20:29:41.341Z,10.13
2019-04-07T20:32:26.216Z,10.40
2019-04-07T20:35:27.581Z,9.50
2019-04-07T20:38:27.425Z,9.90
2019-04-07T20:41:05.354Z,9.77
2019-04-07T20:43:58.868Z,9.67
2019-04-07T20:46:47.327Z,9.03
2019-04-07T20:49:40.292Z,10.33
2019-04-07T20:52:24.691Z,10.00
2019-04-07T20:55:29.735Z,10.00
2019-04-07T20:58:23.857Z,10.00
2019-04-07T21:01:04.517Z,10.47
2019-04-07T21:03:54.273Z,9.80
2019-04-07T21:06:42.184Z,10.60
2019-04-07T21:09:35.536Z,10.57
2019-04-07T21:12:17.558Z,10.33
2019-04-07T21:14:58.874Z,10.30
2019-04-07T21:17:50.191Z,9.97
2019-04-07T21:20:38.948Z,9.47
2019-04-07T21:23:21.417Z,9.70
2019-04-07T21:26:06.559Z,9.20
2019-04-07T21:28:40.711Z,8.70
2019-04-07T21:31:28.374Z,9.30
2019-04-07T21:34:13.141Z,9.70
2019-04-07T21:37:10.712Z,10.57
2019-04-07T21:39:45.071Z,9.90
2019-04-07T21:42:36.635Z,9.50
2019-04-07T21:45:37.164Z,9.47
2019-04-07T21:48:17.995Z,9.27
2019-04-07T21:51:19.405Z,10.00
2019-04-07T21:54:01.216Z,9.63
2019-04-07T21:56:50.308Z,9.13
2019-04-07T21:59:37.716Z,9.57
2019-04-07T22:02:34.897Z,8.80
2019-04-07T22:05:28.657Z,9.50
2019-04-07T22:08:16.994Z,9.20
2019-04-07T22:10:42.774Z,9.83
2019-04-07T22:13:12.272Z,9.50
2019-04-07T22:15:48.308Z,9.43
2019-04-07T22:18:13.144Z,9.87
2019-04-07T22:20:43.244Z,9.43
2019-04-07T22:23:12.640Z,9.17
2019-04-07T22:25:50.579Z,8.83
2019-04-07T22:28:20.697Z,9.20
2019-04-07T22:30:50.881Z,9.13
2019-04-07T22:33:23.000Z,9.90
2019-04-07T22:35:51.417Z,9.00
2019-04-07T22:38:23.049Z,9.80
2019-04-07T22:40:52.194Z,9.57
2019-04-07T22:43:24.793Z,9.07
2019-04-07T22:46:04.357Z,8.57
2019-04-07T22:48:26.797Z,9.03
2019-04-07T22:50:56.119Z,9.40
2019-04-07T22:53:28.445Z,8.73
2019-04-07T22:55:56.895Z,10.03
2019-04-07T22:58:26.089Z,8.80
2019-04-07T23:00:55.455Z,8.70
2019-04-07T23:03:24.707Z,9.00
2019-04-07T23:05:53.881Z,8.67
2019-04-07T23:08:23.142Z,9.00
2019-04-07T23:10:52.398Z,8.23
2019-04-07T23:13:21.783Z,9.70
2019-04-07T23:15:50.930Z,9.67
2019-04-07T23:18:22.112Z,10.17
2019-04-07T23:20:51.551Z,9.13
2019-04-07T23:23:26.016Z,9.80
2019-04-07T23:25:55.682Z,9.30
2019-04-07T23:28:27.036Z,9.77
2019-04-07T23:30:56.951Z,9.77
2019-04-07T23:33:26.138Z,8.83
2019-04-07T23:35:55.516Z,9.63
2019-04-07T23:38:24.760Z,8.83
2019-04-07T23:40:53.978Z,9.53
2019-04-07T23:43:23.169Z,8.50
2019-04-07T23:45:53.037Z,9.57
2019-04-07T23:48:22.289Z,8.93
2019-04-07T23:50:52.046Z,8.30
2019-04-07T23:53:58.068Z,8.83
2019-04-07T23:56:27.422Z,8.77
2019-04-07T23:58:56.641Z,8.67
